Time;durP1;ratioP1;P1;durP2;ratioP2;P2;SDS_P1;SDS_P2;PMS_P1;PMS_P2;Temp;Humidity;BMP_temperature;BMP_pressure;BME280_temperature;BME280_humidity;BME280_pressure;Samples;Min_cycle;Max_cycle;Signal;HPM_P1;HPM_P2
2023/03/12 00:01:53;;;;;;;;;;;;;;;1.47;96.13;92436.22;5030314;28;19937;-37
2023/03/12 00:04:18;;;;;;;;;;;;;;;1.41;96.03;92441.72;5032307;28;20405;-37
2023/03/12 00:06:43;;;;;;;;;;;;;;;1.37;95.73;92443.25;5029253;28;19978;-37
2023/03/12 00:09:09;;;;;;;;;;;;;;;1.47;95.07;92447.09;5022039;28;20020;-37
2023/03/12 00:11:34;;;;;;;;;;;;;;;1.58;93.50;92449.69;5026764;28;19935;-37
2023/03/12 00:13:59;;;;;;;;;;;;;;;1.42;91.72;92454.09;5028150;28;20415;-37
2023/03/12 00:16:25;;;;;;;;;;;;;;;1.45;91.38;92449.59;5027823;28;19960;-37
2023/03/12 00:18:51;;;;;;;;;;;;;;;1.39;93.94;92457.81;5030829;28;19941;-37
2023/03/12 00:21:16;;;;;;;;;;;;;;;1.36;95.64;92467.03;5030427;28;19939;-37
2023/03/12 00:23:42;;;;;;;;;;;;;;;1.49;95.56;92471.81;5028589;28;20322;-37
2023/03/12 00:26:09;;;;;;;;;;;;;;;1.40;93.83;92453.88;5028995;28;20039;-37
2023/03/12 00:28:34;;;;;;;;;;;;;;;1.51;93.33;92466.59;5030766;28;20040;-38
2023/03/12 00:31:00;;;;;;;;;;;;;;;1.59;92.68;92469.44;5032494;28;20436;-38
2023/03/12 00:33:26;;;;;;;;;;;;;;;1.52;91.82;92471.50;5024921;28;20397;-38
2023/03/12 00:35:51;;;;;;;;;;;;;;;1.39;92.04;92471.41;5023975;28;20391;-38
2023/03/12 00:38:17;;;;;;;;;;;;;;;1.56;91.61;92481.38;5053485;28;20338;-38
2023/03/12 00:40:42;;;;;;;;;;;;;;;1.47;90.56;92487.91;5035349;28;19945;-37
2023/03/12 00:43:07;;;;;;;;;;;;;;;1.44;91.56;92480.75;5062804;28;20027;-38
2023/03/12 00:45:32;;;;;;;;;;;;;;;1.30;89.52;92479.94;5024018;28;19942;-38
2023/03/12 00:47:58;;;;;;;;;;;;;;;1.27;89.27;92486.41;5030040;28;20309;-37
2023/03/12 00:50:23;;;;;;;;;;;;;;;0.94;89.57;92481.34;5028799;28;19935;-38
2023/03/12 00:52:48;;;;;;;;;;;;;;;1.16;88.14;92478.38;5021631;28;19971;-38
2023/03/12 00:55:14;;;;;;;;;;;;;;;1.19;86.59;92482.78;5025645;28;19995;-37
2023/03/12 00:57:39;;;;;;;;;;;;;;;1.32;85.97;92488.31;5024844;28;19936;-37
2023/03/12 01:00:09;;;;;;;;;;;;;;;1.29;84.78;92486.63;5026651;28;20471;-37
2023/03/12 01:02:34;;;;;;;;;;;;;;;1.33;89.04;92489.78;5025577;28;19928;-38
2023/03/12 01:04:59;;;;;;;;;;;;;;;1.36;88.97;92488.78;5017003;28;19934;-37
2023/03/12 01:07:25;;;;;;;;;;;;;;;1.32;86.39;92482.88;5018564;28;19981;-37
2023/03/12 01:09:50;;;;;;;;;;;;;;;1.20;84.92;92486.25;5018985;28;19936;-37
2023/03/12 01:12:15;;;;;;;;;;;;;;;1.18;87.70;92475.16;5028364;28;20065;-38
2023/03/12 01:14:41;;;;;;;;;;;;;;;1.19;87.92;92482.78;5027536;28;19995;-38
2023/03/12 01:17:06;;;;;;;;;;;;;;;1.15;87.96;92484.34;5025867;28;19963;-38
2023/03/12 01:19:31;;;;;;;;;;;;;;;1.36;85.57;92485.31;5021058;28;19942;-37
2023/03/12 01:21:56;;;;;;;;;;;;;;;1.15;85.93;92479.63;5029788;28;19944;-38
2023/03/12 01:24:22;;;;;;;;;;;;;;;1.12;83.92;92494.25;5027163;28;20018;-37
2023/03/12 01:26:47;;;;;;;;;;;;;;;1.00;86.40;92490.16;5024993;28;19992;-37
2023/03/12 01:29:12;;;;;;;;;;;;;;;1.10;87.58;92496.75;5034890;28;20075;-38
2023/03/12 01:31:37;;;;;;;;;;;;;;;0.98;87.13;92497.34;5027859;28;19996;-37
2023/03/12 01:34:03;;;;;;;;;;;;;;;1.03;86.59;92485.69;5031408;28;19946;-37
2023/03/12 01:36:29;;;;;;;;;;;;;;;1.20;85.08;92486.97;5025632;28;19956;-38
2023/03/12 01:38:55;;;;;;;;;;;;;;;1.21;85.19;92488.44;5036702;28;20328;-38
2023/03/12 01:41:21;;;;;;;;;;;;;;;1.32;86.01;92501.91;5021277;28;20452;-38
2023/03/12 01:43:46;;;;;;;;;;;;;;;1.27;83.65;92493.81;5021094;28;19937;-38
2023/03/12 01:46:20;;;;;;;;;;;;;;;1.16;83.79;92502.09;5032031;28;19969;-38
2023/03/12 01:48:50;;;;;;;;;;;;;;;1.16;84.27;92500.13;5016258;28;19931;-38
2023/03/12 01:51:16;;;;;;;;;;;;;;;1.19;82.73;92498.38;5058326;28;19940;-37
2023/03/12 01:53:42;;;;;;;;;;;;;;;1.09;83.22;92499.94;5060698;28;19946;-38
2023/03/12 01:56:07;;;;;;;;;;;;;;;0.98;84.14;92500.06;5056972;28;19959;-38
2023/03/12 01:58:33;;;;;;;;;;;;;;;0.90;85.21;92510.78;5021020;28;19942;-38
2023/03/12 02:00:59;;;;;;;;;;;;;;;0.93;84.64;92507.06;5064152;28;20056;-37
2023/03/12 02:03:24;;;;;;;;;;;;;;;1.00;83.55;92509.19;5023412;28;19932;-37
2023/03/12 02:05:54;;;;;;;;;;;;;;;0.80;83.33;92493.34;5045317;28;19993;-37
2023/03/12 02:08:19;;;;;;;;;;;;;;;0.87;84.21;92505.63;5056316;28;19973;-37
2023/03/12 02:10:45;;;;;;;;;;;;;;;0.97;83.74;92507.50;5057111;28;19948;-38
2023/03/12 02:13:10;;;;;;;;;;;;;;;0.84;83.00;92503.94;5025751;28;19939;-38
2023/03/12 02:15:35;;;;;;;;;;;;;;;0.77;83.74;92521.53;5026900;28;19958;-38
2023/03/12 02:18:04;;;;;;;;;;;;;;;0.63;84.49;92517.19;5021463;28;19985;-38
2023/03/12 02:20:33;;;;;;;;;;;;;;;0.68;84.65;92521.84;5028743;28;20001;-38
2023/03/12 02:23:01;;;;;;;;;;;;;;;0.61;83.92;92511.53;5049525;28;19941;-38
2023/03/12 02:25:33;;;;;;;;;;;;;;;0.58;84.34;92512.56;5048596;28;19934;-37
2023/03/12 02:27:59;;;;;;;;;;;;;;;0.37;84.07;92517.66;5024210;28;19984;-37
2023/03/12 02:30:24;;;;;;;;;;;;;;;0.33;85.16;92519.19;5019636;28;20386;-37
2023/03/12 02:32:50;;;;;;;;;;;;;;;0.29;84.84;92510.56;5061826;28;20448;-37
2023/03/12 02:35:15;;;;;;;;;;;;;;;0.19;85.97;92520.28;5025536;28;19933;-37
2023/03/12 02:37:50;;;;;;;;;;;;;;;0.24;85.86;92525.66;5053074;28;19944;-37
2023/03/12 02:40:27;;;;;;;;;;;;;;;0.24;85.81;92528.38;5034705;28;19933;-37
2023/03/12 02:42:52;;;;;;;;;;;;;;;0.13;86.31;92535.88;5025991;28;19931;-37
2023/03/12 02:45:17;;;;;;;;;;;;;;;0.06;86.39;92518.16;5031714;28;19937;-37
2023/03/12 02:47:42;;;;;;;;;;;;;;;-0.03;87.71;92532.03;5031938;28;20351;-37
2023/03/12 02:50:08;;;;;;;;;;;;;;;-0.11;88.79;92531.09;5027673;28;19928;-37
2023/03/12 02:52:34;;;;;;;;;;;;;;;-0.18;87.92;92526.94;5024780;28;19942;-37
2023/03/12 02:54:59;;;;;;;;;;;;;;;-0.19;89.43;92522.00;5022649;28;19951;-37
2023/03/12 02:57:25;;;;;;;;;;;;;;;-0.20;87.69;92528.66;5024635;28;20302;-37
2023/03/12 02:59:50;;;;;;;;;;;;;;;-0.28;88.49;92528.47;5029629;28;19965;-37
2023/03/12 03:02:15;;;;;;;;;;;;;;;-0.33;90.85;92542.06;5024477;28;19949;-37
2023/03/12 03:04:40;;;;;;;;;;;;;;;-0.29;91.32;92539.81;5027389;28;19957;-37
2023/03/12 03:07:06;;;;;;;;;;;;;;;-0.33;90.75;92537.38;5026567;28;20502;-37
2023/03/12 03:09:31;;;;;;;;;;;;;;;-0.42;90.99;92537.66;5021951;28;19932;-37
2023/03/12 03:11:56;;;;;;;;;;;;;;;-0.33;91.90;92536.63;5021970;28;20142;-37
2023/03/12 03:14:22;;;;;;;;;;;;;;;-0.35;90.27;92542.56;5027241;28;19951;-38
2023/03/12 03:16:47;;;;;;;;;;;;;;;-0.40;90.96;92540.59;5028287;28;20017;-37
2023/03/12 03:19:12;;;;;;;;;;;;;;;-0.34;90.41;92546.72;5026508;28;20327;-37
2023/03/12 03:21:38;;;;;;;;;;;;;;;-0.21;90.63;92540.75;5035094;28;19930;-37
2023/03/12 03:24:03;;;;;;;;;;;;;;;-0.24;90.79;92550.63;5034824;28;19937;-37
2023/03/12 03:26:29;;;;;;;;;;;;;;;-0.30;89.55;92562.72;5020987;28;19950;-38
2023/03/12 03:28:54;;;;;;;;;;;;;;;-0.35;90.69;92561.53;5020833;28;19945;-38
2023/03/12 03:31:19;;;;;;;;;;;;;;;-0.15;90.18;92569.31;5025986;28;19989;-37
2023/03/12 03:33:45;;;;;;;;;;;;;;;-0.19;90.39;92562.69;5031114;28;19933;-37
2023/03/12 03:36:12;;;;;;;;;;;;;;;-0.19;89.99;92568.09;5020677;28;19955;-37
2023/03/12 03:38:38;;;;;;;;;;;;;;;-0.38;90.28;92567.22;5030810;28;19938;-38
2023/03/12 03:41:03;;;;;;;;;;;;;;;-0.50;90.60;92565.81;5026964;28;20874;-38
2023/03/12 03:43:28;;;;;;;;;;;;;;;-0.43;90.84;92574.13;5030263;28;20008;-37
2023/03/12 03:46:00;;;;;;;;;;;;;;;-0.34;89.97;92573.84;5024771;28;19938;-38
2023/03/12 03:48:25;;;;;;;;;;;;;;;-0.27;87.76;92575.31;5030783;28;20538;-37
2023/03/12 03:50:50;;;;;;;;;;;;;;;-0.30;88.47;92585.19;5024785;28;19936;-37
2023/03/12 03:53:18;;;;;;;;;;;;;;;-0.15;88.93;92585.59;5027164;28;19934;-37
2023/03/12 03:55:43;;;;;;;;;;;;;;;-0.38;89.24;92589.66;5029812;28;19954;-38
2023/03/12 03:58:08;;;;;;;;;;;;;;;-0.30;88.27;92587.88;5029007;28;19953;-37
2023/03/12 04:00:34;;;;;;;;;;;;;;;-0.22;88.04;92588.81;5025962;28;20118;-37
2023/03/12 04:02:59;;;;;;;;;;;;;;;-0.44;88.18;92602.50;5036861;28;19946;-37
2023/03/12 04:05:24;;;;;;;;;;;;;;;-0.37;88.54;92601.97;5027153;28;19935;-37
2023/03/12 04:07:53;;;;;;;;;;;;;;;-0.34;87.96;92602.94;5030352;28;19945;-37
2023/03/12 04:10:22;;;;;;;;;;;;;;;-0.32;88.53;92603.19;5026833;28;20323;-37
2023/03/12 04:12:47;;;;;;;;;;;;;;;-0.49;89.04;92607.94;5026052;28;19941;-37
2023/03/12 04:15:13;;;;;;;;;;;;;;;-0.55;90.79;92615.34;5031808;28;19936;-37
2023/03/12 04:17:38;;;;;;;;;;;;;;;-0.56;89.33;92614.59;5025596;28;20025;-38
2023/03/12 04:20:06;;;;;;;;;;;;;;;-0.47;89.74;92610.88;5029054;28;19940;-38
2023/03/12 04:22:32;;;;;;;;;;;;;;;-0.54;89.09;92614.13;5030487;28;19934;-38
2023/03/12 04:24:57;;;;;;;;;;;;;;;-0.54;87.91;92612.13;5030817;28;19943;-38
2023/03/12 04:27:22;;;;;;;;;;;;;;;-0.72;89.09;92620.06;5030665;28;20023;-38
2023/03/12 04:29:47;;;;;;;;;;;;;;;-0.58;87.48;92624.47;5030315;28;20425;-38
2023/03/12 04:32:13;;;;;;;;;;;;;;;-0.55;87.43;92626.19;5027383;28;19937;-38
2023/03/12 04:34:38;;;;;;;;;;;;;;;-0.73;88.08;92624.75;5031494;28;19938;-38
2023/03/12 04:37:03;;;;;;;;;;;;;;;-0.69;89.21;92627.94;5019112;28;20002;-37
2023/03/12 04:39:28;;;;;;;;;;;;;;;-0.65;89.43;92636.56;5013250;28;19936;-37
2023/03/12 04:41:54;;;;;;;;;;;;;;;-0.68;89.50;92629.44;5017509;28;19937;-38
2023/03/12 04:44:19;;;;;;;;;;;;;;;-0.66;88.52;92632.38;5016519;28;19942;-38
2023/03/12 04:46:44;;;;;;;;;;;;;;;-0.58;87.80;92643.44;5022039;28;20337;-37
2023/03/12 04:49:10;;;;;;;;;;;;;;;-0.69;88.22;92640.78;5030840;28;20489;-37
2023/03/12 04:51:35;;;;;;;;;;;;;;;-0.60;87.92;92645.91;5030981;28;19937;-37
2023/03/12 04:54:00;;;;;;;;;;;;;;;-0.76;87.77;92653.56;5031766;28;19929;-37
2023/03/12 04:56:25;;;;;;;;;;;;;;;-0.77;87.59;92660.25;5028297;28;20364;-37
2023/03/12 04:58:51;;;;;;;;;;;;;;;-0.62;87.54;92661.94;5024341;28;19932;-37
2023/03/12 05:01:26;;;;;;;;;;;;;;;-0.63;87.46;92663.94;5029527;28;19941;-37
2023/03/12 05:03:52;;;;;;;;;;;;;;;-0.60;87.49;92673.75;5027209;28;19932;-37
2023/03/12 05:06:17;;;;;;;;;;;;;;;-0.56;87.52;92676.94;5030097;28;19994;-37
2023/03/12 05:08:43;;;;;;;;;;;;;;;-0.58;86.79;92676.72;5027828;28;20333;-37
2023/03/12 05:11:08;;;;;;;;;;;;;;;-0.76;87.03;92669.84;5028082;28;19940;-37
2023/03/12 05:13:33;;;;;;;;;;;;;;;-0.73;87.53;92692.50;5030868;28;19988;-37
2023/03/12 05:15:59;;;;;;;;;;;;;;;-0.73;87.95;92697.94;5021052;28;20074;-37
2023/03/12 05:18:25;;;;;;;;;;;;;;;-0.73;87.80;92694.47;5028799;28;19942;-37
2023/03/12 05:21:00;;;;;;;;;;;;;;;-0.74;87.55;92696.47;5025479;28;19937;-37
2023/03/12 05:23:25;;;;;;;;;;;;;;;-0.71;86.58;92697.47;5031412;28;20325;-37
2023/03/12 05:25:50;;;;;;;;;;;;;;;-0.65;86.76;92712.44;5019614;28;19929;-37
2023/03/12 05:28:16;;;;;;;;;;;;;;;-0.58;87.15;92716.63;5025394;28;19934;-37
2023/03/12 05:30:41;;;;;;;;;;;;;;;-0.58;86.23;92703.81;5029341;28;20029;-37
2023/03/12 05:33:06;;;;;;;;;;;;;;;-0.47;86.94;92706.53;5029892;28;19944;-37
2023/03/12 05:35:31;;;;;;;;;;;;;;;-0.35;85.74;92718.84;5020005;28;20016;-37
2023/03/12 05:37:57;;;;;;;;;;;;;;;-0.44;86.22;92726.50;5026477;28;20740;-37
2023/03/12 05:40:22;;;;;;;;;;;;;;;-0.41;85.63;92715.38;5025214;28;19934;-37
2023/03/12 05:42:47;;;;;;;;;;;;;;;-0.51;85.22;92711.47;5027842;28;19946;-37
2023/03/12 05:45:12;;;;;;;;;;;;;;;-0.41;86.03;92728.22;5022113;28;19931;-37
2023/03/12 05:47:38;;;;;;;;;;;;;;;-0.42;85.55;92735.59;5029427;28;19935;-37
2023/03/12 05:50:03;;;;;;;;;;;;;;;-0.33;85.60;92734.59;5020348;28;20395;-37
2023/03/12 05:52:28;;;;;;;;;;;;;;;-0.23;84.62;92733.84;5025586;28;19941;-37
2023/03/12 05:54:54;;;;;;;;;;;;;;;0.02;84.34;92740.19;5028379;28;19935;-37
2023/03/12 05:57:19;;;;;;;;;;;;;;;-0.12;83.92;92758.22;5019832;28;19957;-37
2023/03/12 05:59:44;;;;;;;;;;;;;;;-0.12;84.11;92754.78;5028854;28;20019;-37
2023/03/12 06:02:10;;;;;;;;;;;;;;;-0.20;84.01;92759.25;5025044;28;20003;-37
2023/03/12 06:04:35;;;;;;;;;;;;;;;-0.13;84.10;92750.59;5026142;28;19935;-37
2023/03/12 06:07:01;;;;;;;;;;;;;;;0.00;83.34;92756.97;5019894;28;20003;-37
2023/03/12 06:09:26;;;;;;;;;;;;;;;0.06;82.80;92756.22;5021390;28;19931;-37
2023/03/12 06:11:51;;;;;;;;;;;;;;;0.09;83.94;92771.50;5025236;28;19936;-37
2023/03/12 06:14:17;;;;;;;;;;;;;;;0.18;82.43;92774.69;5022202;28;20469;-37
2023/03/12 06:16:42;;;;;;;;;;;;;;;0.42;79.80;92777.56;5026280;28;20514;-37
2023/03/12 06:19:07;;;;;;;;;;;;;;;0.64;79.50;92769.31;5026955;28;19937;-37
2023/03/12 06:21:34;;;;;;;;;;;;;;;1.06;78.02;92773.50;5035469;28;20034;-38
2023/03/12 06:23:59;;;;;;;;;;;;;;;1.83;76.36;92785.06;5032800;28;20077;-38
2023/03/12 06:26:25;;;;;;;;;;;;;;;2.77;72.89;92794.97;5027428;28;20054;-38
2023/03/12 06:28:51;;;;;;;;;;;;;;;4.05;66.99;92800.03;5030124;28;19932;-38
2023/03/12 06:31:16;;;;;;;;;;;;;;;4.33;64.35;92783.88;5024705;28;19958;-38
2023/03/12 06:33:41;;;;;;;;;;;;;;;4.93;63.05;92791.44;5034549;28;20357;-38
2023/03/12 06:36:07;;;;;;;;;;;;;;;5.44;59.22;92798.06;5018648;28;19958;-38
2023/03/12 06:38:32;;;;;;;;;;;;;;;6.11;57.65;92800.00;5027001;28;19958;-38
2023/03/12 06:40:59;;;;;;;;;;;;;;;5.85;58.09;92797.41;5020613;28;19943;-38
2023/03/12 06:43:25;;;;;;;;;;;;;;;6.69;55.91;92811.22;5027718;28;19939;-38
2023/03/12 06:45:50;;;;;;;;;;;;;;;7.14;55.02;92810.03;5029096;28;19933;-38
2023/03/12 06:48:16;;;;;;;;;;;;;;;8.31;50.02;92822.47;5028840;28;19980;-38
2023/03/12 06:50:42;;;;;;;;;;;;;;;8.37;50.10;92809.28;5026773;28;19933;-38
2023/03/12 06:53:08;;;;;;;;;;;;;;;8.02;51.39;92812.88;5029641;28;20569;-38
2023/03/12 06:55:33;;;;;;;;;;;;;;;7.98;50.80;92820.00;5022525;28;20504;-38
2023/03/12 06:57:58;;;;;;;;;;;;;;;8.18;47.99;92838.38;5021127;28;19946;-38
2023/03/12 07:00:24;;;;;;;;;;;;;;;9.26;47.10;92838.53;5023370;28;19963;-38
2023/03/12 07:02:49;;;;;;;;;;;;;;;10.86;44.94;92828.84;5027081;28;19939;-39
2023/03/12 07:05:14;;;;;;;;;;;;;;;11.84;41.55;92820.28;5026056;28;20409;-38
2023/03/12 07:07:40;;;;;;;;;;;;;;;12.27;39.80;92813.25;5018292;28;20050;-38
2023/03/12 07:10:05;;;;;;;;;;;;;;;12.33;38.85;92837.88;5021997;28;19937;-38
2023/03/12 07:12:31;;;;;;;;;;;;;;;12.56;39.56;92847.31;5054298;28;20396;-39
2023/03/12 07:14:57;;;;;;;;;;;;;;;13.03;37.09;92843.28;5024796;28;19946;-38
2023/03/12 07:17:23;;;;;;;;;;;;;;;12.05;39.98;92837.16;5026046;28;20338;-39
2023/03/12 07:19:48;;;;;;;;;;;;;;;13.30;37.89;92841.16;5036398;28;19957;-38
2023/03/12 07:22:14;;;;;;;;;;;;;;;14.34;35.99;92845.25;5028256;28;19945;-38
2023/03/12 07:24:39;;;;;;;;;;;;;;;14.43;34.14;92854.91;5015728;28;19939;-38
2023/03/12 07:27:04;;;;;;;;;;;;;;;14.31;35.70;92863.09;5026769;28;20026;-38
2023/03/12 07:29:29;;;;;;;;;;;;;;;14.86;33.37;92861.34;5024033;28;19933;-38
2023/03/12 07:31:55;;;;;;;;;;;;;;;15.11;33.00;92845.75;5014614;28;19940;-39
2023/03/12 07:34:20;;;;;;;;;;;;;;;16.62;31.38;92838.88;5021670;28;19937;-38
2023/03/12 07:36:45;;;;;;;;;;;;;;;16.13;31.45;92842.72;5023016;28;19952;-38
2023/03/12 07:39:11;;;;;;;;;;;;;;;15.78;32.54;92858.53;5030839;28;19944;-39
2023/03/12 07:41:37;;;;;;;;;;;;;;;16.57;31.91;92861.50;5025106;28;20428;-39
2023/03/12 07:44:03;;;;;;;;;;;;;;;16.90;30.05;92856.59;5024567;28;19936;-38
2023/03/12 07:46:28;;;;;;;;;;;;;;;15.74;31.97;92861.06;5017850;28;19941;-38
2023/03/12 07:48:54;;;;;;;;;;;;;;;16.53;31.74;92858.47;5031284;28;19968;-38
2023/03/12 07:51:20;;;;;;;;;;;;;;;17.20;30.45;92850.06;5029147;28;20004;-38
2023/03/12 07:53:45;;;;;;;;;;;;;;;16.31;30.90;92860.56;5021769;28;19933;-38
2023/03/12 07:56:10;;;;;;;;;;;;;;;15.94;32.18;92871.44;5028184;28;19963;-36
2023/03/12 07:58:37;;;;;;;;;;;;;;;15.75;32.73;92877.13;5030432;28;19934;-38
2023/03/12 08:01:02;;;;;;;;;;;;;;;17.62;27.76;92882.59;5022804;28;20428;-39
2023/03/12 08:03:27;;;;;;;;;;;;;;;16.14;27.93;92882.41;5029209;28;19941;-38
2023/03/12 08:06:00;;;;;;;;;;;;;;;16.77;27.01;92876.72;5026915;28;20396;-37
2023/03/12 08:08:25;;;;;;;;;;;;;;;15.87;26.97;92891.13;5022925;28;19934;-38
2023/03/12 08:10:51;;;;;;;;;;;;;;;15.23;28.76;92884.75;5020813;28;20592;-38
2023/03/12 08:13:16;;;;;;;;;;;;;;;13.49;30.64;92899.44;5019171;28;19973;-38
2023/03/12 08:15:43;;;;;;;;;;;;;;;14.76;31.20;92910.66;5014624;28;19950;-38
2023/03/12 08:18:08;;;;;;;;;;;;;;;16.28;27.65;92906.34;5017687;28;19947;-38
2023/03/12 08:20:33;;;;;;;;;;;;;;;16.74;26.60;92893.94;5020117;28;19938;-38
2023/03/12 08:22:59;;;;;;;;;;;;;;;17.43;25.36;92891.22;5019835;28;20050;-38
2023/03/12 08:25:24;;;;;;;;;;;;;;;18.09;25.34;92888.81;5022028;28;19951;-38
2023/03/12 08:27:49;;;;;;;;;;;;;;;17.62;24.21;92909.78;5020734;28;20452;-39
2023/03/12 08:30:15;;;;;;;;;;;;;;;15.34;26.77;92909.13;5016912;28;19935;-38
2023/03/12 08:32:40;;;;;;;;;;;;;;;13.02;29.63;92911.09;5025338;28;20430;-38
2023/03/12 08:35:05;;;;;;;;;;;;;;;14.28;31.50;92916.28;5027470;28;19965;-38
2023/03/12 08:37:31;;;;;;;;;;;;;;;14.15;28.35;92914.69;5026516;28;19953;-38
2023/03/12 08:39:57;;;;;;;;;;;;;;;14.78;26.28;92916.38;5017840;28;19974;-38
2023/03/12 08:42:22;;;;;;;;;;;;;;;14.75;27.83;92921.06;5025596;28;20006;-38
2023/03/12 08:44:47;;;;;;;;;;;;;;;13.41;29.26;92920.28;5021639;28;19933;-38
2023/03/12 08:47:13;;;;;;;;;;;;;;;13.24;30.13;92918.34;5020736;28;20028;-38
2023/03/12 08:49:38;;;;;;;;;;;;;;;11.75;31.42;92906.66;5016649;28;20043;-38
2023/03/12 08:52:03;;;;;;;;;;;;;;;11.53;32.31;92915.91;5017222;28;19986;-38
2023/03/12 08:54:29;;;;;;;;;;;;;;;10.40;32.02;92927.78;5023634;28;19997;-37
2023/03/12 08:56:54;;;;;;;;;;;;;;;8.73;35.62;92921.16;5018330;28;20048;-41
2023/03/12 08:59:21;;;;;;;;;;;;;;;8.95;37.13;92926.69;5020538;28;19962;-42
2023/03/12 09:01:46;;;;;;;;;;;;;;;9.67;37.94;92920.72;5024196;28;19993;-42
2023/03/12 09:04:11;;;;;;;;;;;;;;;10.91;34.17;92922.53;5023786;28;19972;-45
2023/03/12 09:06:37;;;;;;;;;;;;;;;12.07;34.83;92923.09;5018221;28;19950;-46
2023/03/12 09:09:04;;;;;;;;;;;;;;;11.74;32.11;92930.09;5018472;28;19944;-45
2023/03/12 09:11:32;;;;;;;;;;;;;;;11.57;32.31;92927.28;5023118;28;20436;-43
2023/03/12 09:13:58;;;;;;;;;;;;;;;10.50;33.82;92915.59;5020496;28;20348;-44
2023/03/12 09:16:23;;;;;;;;;;;;;;;9.62;35.35;92930.66;5019044;28;20009;-45
2023/03/12 09:18:49;;;;;;;;;;;;;;;8.92;35.58;92933.28;5020468;28;19945;-38
2023/03/12 09:21:14;;;;;;;;;;;;;;;9.00;35.86;92936.81;5023790;28;19937;-38
2023/03/12 09:23:39;;;;;;;;;;;;;;;8.83;37.25;92942.13;5016528;28;20440;-38
2023/03/12 09:26:07;;;;;;;;;;;;;;;8.52;37.46;92937.84;5023987;28;19983;-38
2023/03/12 09:28:33;;;;;;;;;;;;;;;7.59;41.17;92931.09;5027708;28;19947;-38
2023/03/12 09:31:00;;;;;;;;;;;;;;;8.03;39.39;92934.56;5029819;28;19941;-38
2023/03/12 09:33:25;;;;;;;;;;;;;;;8.14;37.45;92940.47;5041989;28;19942;-38
2023/03/12 09:35:57;;;;;;;;;;;;;;;8.24;39.51;92943.44;5030141;28;19958;-38
2023/03/12 09:38:22;;;;;;;;;;;;;;;8.44;41.42;92941.88;5020262;28;19942;-38
2023/03/12 09:40:48;;;;;;;;;;;;;;;8.80;42.61;92943.22;5030581;28;20019;-38
2023/03/12 09:43:31;;;;;;;;;;;;;;;9.23;42.17;92945.03;5025049;28;19990;-38
2023/03/12 09:45:57;;;;;;;;;;;;;;;9.48;42.02;92934.19;5018386;28;20025;-38
2023/03/12 09:48:35;;;;;;;;;;;;;;;10.27;40.01;92937.06;5020322;28;20024;-38
2023/03/12 09:51:21;;;;;;;;;;;;;;;9.55;36.54;92939.66;5016279;28;20387;-38
2023/03/12 09:53:47;;;;;;;;;;;;;;;8.60;37.94;92946.84;5022557;28;19936;-38
2023/03/12 09:56:13;;;;;;;;;;;;;;;8.75;37.97;92940.66;5019799;28;20042;-38
2023/03/12 09:58:41;;;;;;;;;;;;;;;8.72;39.90;92936.97;5020114;28;19982;-37
2023/03/12 10:01:06;;;;;;;;;;;;;;;9.40;38.91;92934.19;5016917;28;20410;-38
2023/03/12 10:03:50;;;;;;;;;;;;;;;10.21;35.81;92935.81;5019489;28;19951;-38
2023/03/12 10:06:19;;;;;;;;;;;;;;;10.95;34.32;92930.41;5016344;28;19937;-38
2023/03/12 10:08:57;;;;;;;;;;;;;;;12.03;33.18;92922.03;5050831;28;19936;-38
2023/03/12 10:11:28;;;;;;;;;;;;;;;13.34;32.84;92932.25;5022891;28;19934;-38
2023/03/12 10:14:12;;;;;;;;;;;;;;;14.46;29.83;92928.72;5027530;28;19941;-38
2023/03/12 10:16:37;;;;;;;;;;;;;;;15.10;28.34;92919.34;5022947;28;19952;-38
2023/03/12 10:19:02;;;;;;;;;;;;;;;14.35;28.73;92923.75;5027110;28;19944;-38
2023/03/12 10:21:36;;;;;;;;;;;;;;;14.74;30.71;92922.38;5019867;28;19944;-38
2023/03/12 10:24:21;;;;;;;;;;;;;;;14.13;30.18;92927.69;5013688;28;19938;-38
2023/03/12 10:26:48;;;;;;;;;;;;;;;14.66;29.34;92927.34;5017522;28;19936;-38
2023/03/12 10:29:17;;;;;;;;;;;;;;;12.71;29.98;92935.00;5054114;28;20432;-38
2023/03/12 10:31:48;;;;;;;;;;;;;;;12.09;30.84;92936.34;5023753;28;19933;-38
2023/03/12 10:34:22;;;;;;;;;;;;;;;10.51;33.60;92941.91;5016547;28;20571;-38
2023/03/12 10:36:47;;;;;;;;;;;;;;;9.55;36.44;92936.19;5049261;28;19955;-37
2023/03/12 10:39:14;;;;;;;;;;;;;;;9.07;36.21;92938.09;5018702;28;19942;-37
2023/03/12 10:41:40;;;;;;;;;;;;;;;8.00;36.96;92938.41;5033083;28;19952;-37
2023/03/12 10:44:06;;;;;;;;;;;;;;;8.27;36.81;92950.63;5034118;28;20022;-37
2023/03/12 10:47:10;;;;;;;;;;;;;;;8.34;37.57;92941.66;5056262;28;19971;-37
2023/03/12 10:49:36;;;;;;;;;;;;;;;9.03;36.64;92941.19;5037761;28;19932;-37
2023/03/12 10:52:04;;;;;;;;;;;;;;;9.83;35.85;92933.88;5045702;28;19933;-37
2023/03/12 10:54:39;;;;;;;;;;;;;;;10.03;35.46;92926.66;5040850;28;20396;-38
2023/03/12 10:57:05;;;;;;;;;;;;;;;9.12;36.20;92934.38;5025542;28;19959;-37
2023/03/12 10:59:32;;;;;;;;;;;;;;;8.24;35.86;92935.19;5017176;28;20111;-37
2023/03/12 11:01:58;;;;;;;;;;;;;;;8.33;37.45;92935.44;5017643;28;19961;-37
2023/03/12 11:04:30;;;;;;;;;;;;;;;8.41;37.31;92929.94;5029614;28;19938;-37
2023/03/12 11:07:02;;;;;;;;;;;;;;;8.52;38.42;92928.84;5023724;28;19934;-38
2023/03/12 11:09:27;;;;;;;;;;;;;;;8.79;39.12;92924.50;5020921;28;19974;-37
2023/03/12 11:11:52;;;;;;;;;;;;;;;9.24;37.91;92924.47;5024009;28;20769;-37
2023/03/12 11:14:18;;;;;;;;;;;;;;;9.17;37.16;92919.72;5056237;28;19982;-37
2023/03/12 11:16:43;;;;;;;;;;;;;;;8.53;36.89;92908.31;5024984;28;20019;-37
2023/03/12 11:19:11;;;;;;;;;;;;;;;8.97;37.53;92910.34;5049812;28;19945;-37
2023/03/12 11:21:38;;;;;;;;;;;;;;;8.75;36.36;92913.84;5020889;28;19939;-37
2023/03/12 11:24:06;;;;;;;;;;;;;;;9.36;36.08;92908.28;5015742;28;20028;-37
2023/03/12 11:26:40;;;;;;;;;;;;;;;10.09;35.84;92916.13;5024797;28;19948;-38
2023/03/12 11:29:11;;;;;;;;;;;;;;;8.68;36.63;92920.09;5026986;28;19988;-37
2023/03/12 11:31:38;;;;;;;;;;;;;;;8.75;35.63;92915.88;5022236;28;19932;-37
2023/03/12 11:34:04;;;;;;;;;;;;;;;9.92;37.14;92914.00;5027550;28;20430;-37
2023/03/12 11:36:41;;;;;;;;;;;;;;;11.39;35.81;92909.94;5051027;28;19955;-37
2023/03/12 11:39:25;;;;;;;;;;;;;;;12.03;33.92;92916.50;5019085;28;20508;-37
2023/03/12 11:41:53;;;;;;;;;;;;;;;12.30;32.29;92913.78;5025490;28;19971;-38
2023/03/12 11:44:34;;;;;;;;;;;;;;;12.57;31.48;92915.25;5025127;28;19993;-38
2023/03/12 11:47:05;;;;;;;;;;;;;;;12.85;31.57;92908.38;5021199;28;19945;-37
2023/03/12 11:49:31;;;;;;;;;;;;;;;12.25;31.10;92903.69;5027150;28;19944;-37
2023/03/12 11:51:56;;;;;;;;;;;;;;;12.22;32.41;92902.78;5026432;28;20019;-38
2023/03/12 11:54:21;;;;;;;;;;;;;;;12.38;33.52;92900.56;5026925;28;19940;-38
2023/03/12 11:56:54;;;;;;;;;;;;;;;11.31;32.63;92903.75;5033201;28;19951;-38
2023/03/12 11:59:32;;;;;;;;;;;;;;;12.02;33.49;92901.94;5050063;28;19977;-37
2023/03/12 12:02:10;;;;;;;;;;;;;;;11.30;31.34;92912.63;5022260;28;19944;-38
2023/03/12 12:04:51;;;;;;;;;;;;;;;11.32;34.10;92915.53;5051842;28;19935;-38
2023/03/12 12:07:31;;;;;;;;;;;;;;;11.65;33.36;92908.56;5025727;28;19995;-37
2023/03/12 12:10:00;;;;;;;;;;;;;;;11.69;35.58;92906.19;5054066;28;20027;-38
2023/03/12 12:12:44;;;;;;;;;;;;;;;11.83;34.14;92910.06;5050934;28;20039;-38
2023/03/12 12:15:19;;;;;;;;;;;;;;;12.55;31.42;92911.59;5014926;28;19955;-38
2023/03/12 12:17:48;;;;;;;;;;;;;;;11.96;32.18;92911.78;5055430;28;20494;-38
2023/03/12 12:20:22;;;;;;;;;;;;;;;11.09;33.87;92912.22;5014685;28;19934;-38
2023/03/12 12:22:48;;;;;;;;;;;;;;;11.19;35.25;92916.59;5028682;28;19934;-37
2023/03/12 12:25:24;;;;;;;;;;;;;;;11.32;34.96;92918.31;5019363;28;19934;-37
2023/03/12 12:28:00;;;;;;;;;;;;;;;11.57;33.61;92921.75;5062728;28;19943;-38
2023/03/12 12:30:52;;;;;;;;;;;;;;;11.22;34.96;92918.19;5061578;28;19977;-38
2023/03/12 12:33:23;;;;;;;;;;;;;;;11.63;33.14;92913.94;5039569;28;19934;-38
2023/03/12 12:35:48;;;;;;;;;;;;;;;12.10;35.22;92913.66;5016383;28;20003;-38
2023/03/12 12:38:29;;;;;;;;;;;;;;;11.55;34.19;92918.81;5020710;28;19991;-38
2023/03/12 12:40:55;;;;;;;;;;;;;;;11.50;35.20;92917.03;5056493;28;19995;-38
2023/03/12 12:43:28;;;;;;;;;;;;;;;10.66;33.97;92922.50;5024507;28;19951;-38
2023/03/12 12:45:54;;;;;;;;;;;;;;;10.81;34.46;92923.66;5054873;28;19937;-37
2023/03/12 12:48:46;;;;;;;;;;;;;;;11.04;36.04;92916.72;5043113;28;20064;-37
2023/03/12 12:51:11;;;;;;;;;;;;;;;10.03;33.90;92926.66;5029402;28;19944;-37